sensor_id;sensor_type;location;lat;lon;timestamp;pressure;altitude;pressure_sealevel;temperature;humidity
79028;BME280;68427;48.476;19.102;2023-08-20T00:00:26;97964.00;;;17.90;85.85
79028;BME280;68427;48.476;19.102;2023-08-20T00:02:59;97973.22;;;17.87;85.77
79028;BME280;68427;48.476;19.102;2023-08-20T00:05:29;97979.00;;;17.84;85.59
79028;BME280;68427;48.476;19.102;2023-08-20T00:07:54;97978.25;;;17.77;86.30
79028;BME280;68427;48.476;19.102;2023-08-20T00:10:22;97972.84;;;17.72;86.20
79028;BME280;68427;48.476;19.102;2023-08-20T00:12:47;97972.84;;;17.72;86.30
79028;BME280;68427;48.476;19.102;2023-08-20T00:15:13;97965.13;;;17.70;85.73
79028;BME280;68427;48.476;19.102;2023-08-20T00:17:40;97969.03;;;17.68;85.70
79028;BME280;68427;48.476;19.102;2023-08-20T00:20:08;97975.03;;;17.63;86.21
79028;BME280;68427;48.476;19.102;2023-08-20T00:22:37;97977.56;;;17.58;86.69
79028;BME280;68427;48.476;19.102;2023-08-20T00:25:04;97974.31;;;17.56;86.68
79028;BME280;68427;48.476;19.102;2023-08-20T00:27:32;97979.38;;;17.58;86.57
79028;BME280;68427;48.476;19.102;2023-08-20T00:29:58;97967.66;;;17.54;86.35
79028;BME280;68427;48.476;19.102;2023-08-20T00:32:24;97960.72;;;17.53;86.12
79028;BME280;68427;48.476;19.102;2023-08-20T00:34:49;97965.47;;;17.51;86.32
79028;BME280;68427;48.476;19.102;2023-08-20T00:37:15;97965.22;;;17.52;86.26
79028;BME280;68427;48.476;19.102;2023-08-20T00:39:41;97963.38;;;17.53;86.09
79028;BME280;68427;48.476;19.102;2023-08-20T00:42:07;97963.03;;;17.49;86.69
79028;BME280;68427;48.476;19.102;2023-08-20T00:44:34;97965.88;;;17.47;86.10
79028;BME280;68427;48.476;19.102;2023-08-20T00:47:01;97961.63;;;17.46;86.47
79028;BME280;68427;48.476;19.102;2023-08-20T00:49:27;97950.00;;;17.47;86.37
79028;BME280;68427;48.476;19.102;2023-08-20T00:51:53;97958.63;;;17.43;86.14
79028;BME280;68427;48.476;19.102;2023-08-20T00:54:20;97953.56;;;17.41;86.26
79028;BME280;68427;48.476;19.102;2023-08-20T00:56:46;97953.78;;;17.40;86.39
79028;BME280;68427;48.476;19.102;2023-08-20T00:59:13;97952.66;;;17.36;86.64
79028;BME280;68427;48.476;19.102;2023-08-20T01:01:40;97949.88;;;17.31;87.42
79028;BME280;68427;48.476;19.102;2023-08-20T01:04:06;97953.53;;;17.30;87.41
79028;BME280;68427;48.476;19.102;2023-08-20T01:06:39;97956.97;;;17.30;87.14
79028;BME280;68427;48.476;19.102;2023-08-20T01:09:14;97959.06;;;17.28;87.36
79028;BME280;68427;48.476;19.102;2023-08-20T01:11:49;97961.13;;;17.26;87.40
79028;BME280;68427;48.476;19.102;2023-08-20T01:14:15;97959.97;;;17.22;87.21
79028;BME280;68427;48.476;19.102;2023-08-20T01:16:42;97962.03;;;17.20;87.00
79028;BME280;68427;48.476;19.102;2023-08-20T01:19:11;97966.38;;;17.14;87.80
79028;BME280;68427;48.476;19.102;2023-08-20T01:21:51;97962.69;;;17.15;86.98
79028;BME280;68427;48.476;19.102;2023-08-20T01:24:29;97962.94;;;17.14;86.88
79028;BME280;68427;48.476;19.102;2023-08-20T01:27:10;97963.94;;;17.13;86.94
79028;BME280;68427;48.476;19.102;2023-08-20T01:29:41;97955.44;;;17.11;86.23
79028;BME280;68427;48.476;19.102;2023-08-20T01:32:07;97955.44;;;17.11;86.24
79028;BME280;68427;48.476;19.102;2023-08-20T01:34:33;97963.59;;;17.09;86.04
79028;BME280;68427;48.476;19.102;2023-08-20T01:36:59;97964.88;;;17.06;86.56
79028;BME280;68427;48.476;19.102;2023-08-20T01:39:25;97965.31;;;17.03;87.06
79028;BME280;68427;48.476;19.102;2023-08-20T01:41:50;97963.94;;;17.01;87.75
79028;BME280;68427;48.476;19.102;2023-08-20T01:44:16;97972.09;;;16.99;87.74
79028;BME280;68427;48.476;19.102;2023-08-20T01:46:43;97964.38;;;16.98;87.51
79028;BME280;68427;48.476;19.102;2023-08-20T01:49:09;97971.75;;;16.96;88.18
79028;BME280;68427;48.476;19.102;2023-08-20T01:51:34;97974.38;;;16.96;87.41
79028;BME280;68427;48.476;19.102;2023-08-20T01:54:02;97971.16;;;16.94;87.07
79028;BME280;68427;48.476;19.102;2023-08-20T01:56:27;97975.63;;;16.93;86.74
79028;BME280;68427;48.476;19.102;2023-08-20T01:58:53;97973.88;;;16.87;87.52
79028;BME280;68427;48.476;19.102;2023-08-20T02:01:19;97978.56;;;16.85;87.04
79028;BME280;68427;48.476;19.102;2023-08-20T02:03:46;97977.19;;;16.82;86.93
79028;BME280;68427;48.476;19.102;2023-08-20T02:06:11;97991.44;;;16.81;87.25
79028;BME280;68427;48.476;19.102;2023-08-20T02:08:37;97988.00;;;16.81;87.66
79028;BME280;68427;48.476;19.102;2023-08-20T02:11:04;97979.47;;;16.79;87.43
79028;BME280;68427;48.476;19.102;2023-08-20T02:13:30;97979.66;;;16.77;87.39
79028;BME280;68427;48.476;19.102;2023-08-20T02:15:59;97978.06;;;16.76;88.03
79028;BME280;68427;48.476;19.102;2023-08-20T02:18:25;97981.75;;;16.75;87.56
79028;BME280;68427;48.476;19.102;2023-08-20T02:20:52;97980.91;;;16.75;88.08
79028;BME280;68427;48.476;19.102;2023-08-20T02:23:18;97981.16;;;16.73;87.51
79028;BME280;68427;48.476;19.102;2023-08-20T02:25:44;97975.47;;;16.70;87.74
79028;BME280;68427;48.476;19.102;2023-08-20T02:28:09;97979.22;;;16.62;89.37
79028;BME280;68427;48.476;19.102;2023-08-20T02:30:40;97985.19;;;16.57;88.39
79028;BME280;68427;48.476;19.102;2023-08-20T02:33:06;97977.03;;;16.59;88.26
79028;BME280;68427;48.476;19.102;2023-08-20T02:35:31;97978.28;;;16.56;88.14
79028;BME280;68427;48.476;19.102;2023-08-20T02:37:58;97974.84;;;16.56;87.77
79028;BME280;68427;48.476;19.102;2023-08-20T02:40:24;97980.34;;;16.54;87.54
79028;BME280;68427;48.476;19.102;2023-08-20T02:42:50;97981.59;;;16.52;87.29
79028;BME280;68427;48.476;19.102;2023-08-20T02:45:15;97978.94;;;16.52;87.42
79028;BME280;68427;48.476;19.102;2023-08-20T02:47:41;97975.16;;;16.48;87.66
79028;BME280;68427;48.476;19.102;2023-08-20T02:50:07;97977.19;;;16.46;88.21
79028;BME280;68427;48.476;19.102;2023-08-20T02:52:33;97982.84;;;16.49;87.68
79028;BME280;68427;48.476;19.102;2023-08-20T02:55:00;97975.16;;;16.48;88.69
79028;BME280;68427;48.476;19.102;2023-08-20T02:57:26;97974.91;;;16.49;88.39
79028;BME280;68427;48.476;19.102;2023-08-20T02:59:52;97977.34;;;16.51;88.36
79028;BME280;68427;48.476;19.102;2023-08-20T03:02:17;97972.84;;;16.51;87.58
79028;BME280;68427;48.476;19.102;2023-08-20T03:04:43;97975.94;;;16.48;88.18
79028;BME280;68427;48.476;19.102;2023-08-20T03:07:09;97976.38;;;16.45;88.18
79028;BME280;68427;48.476;19.102;2023-08-20T03:09:34;97975.78;;;16.43;88.68
79028;BME280;68427;48.476;19.102;2023-08-20T03:12:02;97977.84;;;16.41;89.07
79028;BME280;68427;48.476;19.102;2023-08-20T03:14:27;97981.28;;;16.41;88.90
79028;BME280;68427;48.476;19.102;2023-08-20T03:16:53;97979.25;;;16.44;88.89
79028;BME280;68427;48.476;19.102;2023-08-20T03:19:18;97975.78;;;16.43;88.58
79028;BME280;68427;48.476;19.102;2023-08-20T03:21:44;97977.59;;;16.42;88.51
79028;BME280;68427;48.476;19.102;2023-08-20T03:24:10;97976.81;;;16.42;88.87
79028;BME280;68427;48.476;19.102;2023-08-20T03:26:35;97977.25;;;16.39;88.59
79028;BME280;68427;48.476;19.102;2023-08-20T03:29:02;97974.66;;;16.32;88.48
79028;BME280;68427;48.476;19.102;2023-08-20T03:31:28;97977.31;;;16.32;88.47
79028;BME280;68427;48.476;19.102;2023-08-20T03:33:54;97978.81;;;16.28;89.23
79028;BME280;68427;48.476;19.102;2023-08-20T03:36:20;97976.97;;;16.29;89.01
79028;BME280;68427;48.476;19.102;2023-08-20T03:38:46;97978.16;;;16.33;89.36
79028;BME280;68427;48.476;19.102;2023-08-20T03:41:11;97979.31;;;16.37;89.54
79028;BME280;68427;48.476;19.102;2023-08-20T03:43:37;97977.59;;;16.42;89.51
79028;BME280;68427;48.476;19.102;2023-08-20T03:46:04;97986.53;;;16.48;89.16
79028;BME280;68427;48.476;19.102;2023-08-20T03:48:30;97988.72;;;16.51;89.68
79028;BME280;68427;48.476;19.102;2023-08-20T03:50:56;97988.28;;;16.54;89.45
79028;BME280;68427;48.476;19.102;2023-08-20T03:53:21;97992.69;;;16.60;89.53
79028;BME280;68427;48.476;19.102;2023-08-20T03:55:48;97990.03;;;16.60;89.54
79028;BME280;68427;48.476;19.102;2023-08-20T03:58:13;97994.50;;;16.60;90.44
79028;BME280;68427;48.476;19.102;2023-08-20T04:00:39;97995.47;;;16.66;90.41
79028;BME280;68427;48.476;19.102;2023-08-20T04:03:06;98003.97;;;16.68;89.59
79028;BME280;68427;48.476;19.102;2023-08-20T04:05:35;97998.03;;;16.72;89.63
79028;BME280;68427;48.476;19.102;2023-08-20T04:08:01;97991.59;;;16.68;89.93
79028;BME280;68427;48.476;19.102;2023-08-20T04:10:27;98002.72;;;16.70;89.84
79028;BME280;68427;48.476;19.102;2023-08-20T04:12:53;97987.44;;;16.72;89.79
79028;BME280;68427;48.476;19.102;2023-08-20T04:15:18;97995.75;;;16.76;90.13
79028;BME280;68427;48.476;19.102;2023-08-20T04:17:44;97989.00;;;16.80;90.11
79028;BME280;68427;48.476;19.102;2023-08-20T04:20:12;97986.75;;;16.83;89.72
79028;BME280;68427;48.476;19.102;2023-08-20T04:22:37;97991.38;;;16.88;90.06
79028;BME280;68427;48.476;19.102;2023-08-20T04:25:04;97989.66;;;16.94;89.58
79028;BME280;68427;48.476;19.102;2023-08-20T04:27:30;97996.94;;;16.98;89.60
79028;BME280;68427;48.476;19.102;2023-08-20T04:29:56;97999.94;;;17.02;89.75
79028;BME280;68427;48.476;19.102;2023-08-20T04:32:22;97997.22;;;17.09;89.86
79028;BME280;68427;48.476;19.102;2023-08-20T04:34:47;98001.72;;;17.08;90.14
79028;BME280;68427;48.476;19.102;2023-08-20T04:37:16;97999.19;;;17.13;89.86
79028;BME280;68427;48.476;19.102;2023-08-20T04:39:41;98010.13;;;17.17;90.25
79028;BME280;68427;48.476;19.102;2023-08-20T04:42:07;98012.56;;;17.18;90.57
79028;BME280;68427;48.476;19.102;2023-08-20T04:44:33;98006.34;;;17.24;90.46
79028;BME280;68427;48.476;19.102;2023-08-20T04:47:00;98011.31;;;17.21;90.33
79028;BME280;68427;48.476;19.102;2023-08-20T04:49:25;98013.41;;;17.31;90.38
79028;BME280;68427;48.476;19.102;2023-08-20T04:51:53;98009.84;;;17.37;89.63
79028;BME280;68427;48.476;19.102;2023-08-20T04:54:20;98017.47;;;17.45;89.72
79028;BME280;68427;48.476;19.102;2023-08-20T04:56:46;98012.69;;;17.54;88.76
79028;BME280;68427;48.476;19.102;2023-08-20T04:59:12;98013.38;;;17.61;88.37
79028;BME280;68427;48.476;19.102;2023-08-20T05:01:38;98015.78;;;17.62;88.05
79028;BME280;68427;48.476;19.102;2023-08-20T05:04:04;98021.69;;;17.64;87.98
79028;BME280;68427;48.476;19.102;2023-08-20T05:06:30;98023.31;;;17.77;87.55
79028;BME280;68427;48.476;19.102;2023-08-20T05:08:55;98017.16;;;17.83;87.44
79028;BME280;68427;48.476;19.102;2023-08-20T05:11:22;98016.56;;;17.81;87.77
79028;BME280;68427;48.476;19.102;2023-08-20T05:13:49;98024.06;;;17.84;87.84
79028;BME280;68427;48.476;19.102;2023-08-20T05:16:15;98018.06;;;17.89;88.19
79028;BME280;68427;48.476;19.102;2023-08-20T05:18:41;98022.34;;;18.02;87.75
79028;BME280;68427;48.476;19.102;2023-08-20T05:21:07;98023.28;;;18.19;87.22
79028;BME280;68427;48.476;19.102;2023-08-20T05:23:33;98019.09;;;18.47;86.21
79028;BME280;68427;48.476;19.102;2023-08-20T05:25:58;98023.47;;;18.53;84.87
79028;BME280;68427;48.476;19.102;2023-08-20T05:28:25;98022.75;;;18.69;84.52
79028;BME280;68427;48.476;19.102;2023-08-20T05:30:55;98020.22;;;18.74;83.89
79028;BME280;68427;48.476;19.102;2023-08-20T05:33:21;98018.75;;;18.78;84.00
79028;BME280;68427;48.476;19.102;2023-08-20T05:35:48;98015.91;;;18.97;83.57
79028;BME280;68427;48.476;19.102;2023-08-20T05:38:13;98013.31;;;19.14;82.67
79028;BME280;68427;48.476;19.102;2023-08-20T05:40:39;98018.22;;;19.34;82.12
79028;BME280;68427;48.476;19.102;2023-08-20T05:43:05;98014.53;;;19.52;81.46
79028;BME280;68427;48.476;19.102;2023-08-20T05:45:32;98016.75;;;19.89;80.09
79028;BME280;68427;48.476;19.102;2023-08-20T05:47:58;98015.00;;;20.33;78.48
79028;BME280;68427;48.476;19.102;2023-08-20T05:50:23;98017.63;;;20.67;77.14
79028;BME280;68427;48.476;19.102;2023-08-20T05:52:49;98012.78;;;21.08;75.62
79028;BME280;68427;48.476;19.102;2023-08-20T05:55:15;98012.63;;;21.42;74.03
79028;BME280;68427;48.476;19.102;2023-08-20T05:57:41;98006.88;;;21.82;72.60
79028;BME280;68427;48.476;19.102;2023-08-20T06:00:09;98008.03;;;22.34;70.83
79028;BME280;68427;48.476;19.102;2023-08-20T06:02:36;98007.16;;;22.71;69.35
79028;BME280;68427;48.476;19.102;2023-08-20T06:05:02;98020.13;;;23.04;68.19
79028;BME280;68427;48.476;19.102;2023-08-20T06:07:30;98018.34;;;23.36;67.38
79028;BME280;68427;48.476;19.102;2023-08-20T06:09:55;98020.03;;;23.83;65.61
79028;BME280;68427;48.476;19.102;2023-08-20T06:12:22;98027.22;;;24.23;64.37
79028;BME280;68427;48.476;19.102;2023-08-20T06:14:48;98029.78;;;24.69;62.93
79028;BME280;68427;48.476;19.102;2023-08-20T06:17:13;98028.38;;;24.87;61.97
79028;BME280;68427;48.476;19.102;2023-08-20T06:19:41;98025.06;;;25.11;61.29
79028;BME280;68427;48.476;19.102;2023-08-20T06:22:06;98027.41;;;25.67;59.09
79028;BME280;68427;48.476;19.102;2023-08-20T06:24:32;98019.97;;;25.93;59.05
79028;BME280;68427;48.476;19.102;2023-08-20T06:26:58;98031.94;;;26.35;56.91
79028;BME280;68427;48.476;19.102;2023-08-20T06:29:23;98023.69;;;26.80;56.20
79028;BME280;68427;48.476;19.102;2023-08-20T06:31:49;98011.88;;;27.00;55.42
79028;BME280;68427;48.476;19.102;2023-08-20T06:34:15;98013.75;;;27.23;53.80
79028;BME280;68427;48.476;19.102;2023-08-20T06:36:43;98015.09;;;27.58;52.93
79028;BME280;68427;48.476;19.102;2023-08-20T06:39:09;98008.13;;;27.57;53.84
79028;BME280;68427;48.476;19.102;2023-08-20T06:41:35;98009.25;;;28.22;51.85
79028;BME280;68427;48.476;19.102;2023-08-20T06:44:01;98012.84;;;28.31;52.15
79028;BME280;68427;48.476;19.102;2023-08-20T06:46:27;98011.56;;;28.56;51.13
79028;BME280;68427;48.476;19.102;2023-08-20T06:48:52;98013.25;;;28.94;49.88
79028;BME280;68427;48.476;19.102;2023-08-20T06:51:20;98015.00;;;29.26;49.10
79028;BME280;68427;48.476;19.102;2023-08-20T06:53:47;98017.38;;;29.41;49.87
79028;BME280;68427;48.476;19.102;2023-08-20T06:56:13;98010.91;;;29.87;48.00
79028;BME280;68427;48.476;19.102;2023-08-20T06:58:40;98010.72;;;29.84;47.17
79028;BME280;68427;48.476;19.102;2023-08-20T07:01:06;98020.78;;;30.23;47.53
79028;BME280;68427;48.476;19.102;2023-08-20T07:03:34;98013.63;;;30.98;45.40
79028;BME280;68427;48.476;19.102;2023-08-20T07:06:00;98018.47;;;31.54;44.39
79028;BME280;68427;48.476;19.102;2023-08-20T07:08:26;98012.03;;;31.93;43.21
79028;BME280;68427;48.476;19.102;2023-08-20T07:10:53;98019.94;;;32.24;43.40
79028;BME280;68427;48.476;19.102;2023-08-20T07:13:19;98022.59;;;32.80;42.13
79028;BME280;68427;48.476;19.102;2023-08-20T07:15:44;98024.19;;;33.53;40.16
79028;BME280;68427;48.476;19.102;2023-08-20T07:18:10;98019.75;;;33.27;40.14
79028;BME280;68427;48.476;19.102;2023-08-20T07:20:38;98022.00;;;34.00;39.59
79028;BME280;68427;48.476;19.102;2023-08-20T07:23:04;98020.63;;;33.61;39.84
79028;BME280;68427;48.476;19.102;2023-08-20T07:25:30;98019.69;;;34.36;38.17
79028;BME280;68427;48.476;19.102;2023-08-20T07:27:57;98021.06;;;34.30;38.26
79028;BME280;68427;48.476;19.102;2023-08-20T07:30:24;98020.47;;;35.35;37.59
79028;BME280;68427;48.476;19.102;2023-08-20T07:32:51;98016.72;;;35.39;36.76
79028;BME280;68427;48.476;19.102;2023-08-20T07:35:17;98014.03;;;36.27;35.04
79028;BME280;68427;48.476;19.102;2023-08-20T07:37:42;98010.25;;;36.32;34.57
79028;BME280;68427;48.476;19.102;2023-08-20T07:40:09;98008.16;;;36.57;34.31
79028;BME280;68427;48.476;19.102;2023-08-20T07:42:36;98012.25;;;37.18;32.30
79028;BME280;68427;48.476;19.102;2023-08-20T07:45:03;98008.59;;;36.94;32.42
79028;BME280;68427;48.476;19.102;2023-08-20T07:47:29;98006.81;;;37.57;32.23
79028;BME280;68427;48.476;19.102;2023-08-20T07:49:55;98006.59;;;38.08;30.69
79028;BME280;68427;48.476;19.102;2023-08-20T07:52:21;98011.59;;;38.25;31.18
79028;BME280;68427;48.476;19.102;2023-08-20T07:54:46;98013.25;;;38.53;30.73
79028;BME280;68427;48.476;19.102;2023-08-20T07:57:12;98007.34;;;38.78;29.46
79028;BME280;68427;48.476;19.102;2023-08-20T07:59:38;98007.50;;;38.62;29.80
79028;BME280;68427;48.476;19.102;2023-08-20T08:02:05;98003.88;;;37.89;29.67
79028;BME280;68427;48.476;19.102;2023-08-20T08:04:31;97996.44;;;38.09;30.39
79028;BME280;68427;48.476;19.102;2023-08-20T08:06:56;97994.31;;;36.50;32.85
79028;BME280;68427;48.476;19.102;2023-08-20T08:09:26;97995.91;;;36.86;31.75
79028;BME280;68427;48.476;19.102;2023-08-20T08:11:52;97994.50;;;37.67;32.04
79028;BME280;68427;48.476;19.102;2023-08-20T08:14:18;97991.81;;;38.59;29.91
79028;BME280;68427;48.476;19.102;2023-08-20T08:16:45;97991.06;;;39.49;27.55
79028;BME280;68427;48.476;19.102;2023-08-20T08:19:12;97992.44;;;39.66;27.41
79028;BME280;68427;48.476;19.102;2023-08-20T08:21:38;97987.34;;;40.05;27.79
79028;BME280;68427;48.476;19.102;2023-08-20T08:24:04;97988.78;;;40.33;26.86
79028;BME280;68427;48.476;19.102;2023-08-20T08:26:30;97985.41;;;40.57;26.37
79028;BME280;68427;48.476;19.102;2023-08-20T08:28:56;97985.19;;;40.77;26.68
79028;BME280;68427;48.476;19.102;2023-08-20T08:31:23;97982.81;;;41.63;25.08
79028;BME280;68427;48.476;19.102;2023-08-20T08:33:48;97982.44;;;39.81;26.78
79028;BME280;68427;48.476;19.102;2023-08-20T08:36:15;97967.34;;;40.05;26.45
79028;BME280;68427;48.476;19.102;2023-08-20T08:38:42;97980.34;;;41.29;26.89
79028;BME280;68427;48.476;19.102;2023-08-20T08:41:10;97966.59;;;40.56;25.74
79028;BME280;68427;48.476;19.102;2023-08-20T08:43:37;97970.16;;;41.37;24.79
79028;BME280;68427;48.476;19.102;2023-08-20T08:46:04;97967.97;;;42.03;25.17
79028;BME280;68427;48.476;19.102;2023-08-20T08:48:32;97976.16;;;42.93;24.00
79028;BME280;68427;48.476;19.102;2023-08-20T08:50:58;97971.22;;;43.47;21.90
79028;BME280;68427;48.476;19.102;2023-08-20T08:53:26;97956.72;;;43.92;21.82
79028;BME280;68427;48.476;19.102;2023-08-20T08:55:51;97967.75;;;43.95;20.97
79028;BME280;68427;48.476;19.102;2023-08-20T08:58:17;97961.19;;;44.72;20.84
79028;BME280;68427;48.476;19.102;2023-08-20T09:00:43;97969.63;;;44.92;20.28
79028;BME280;68427;48.476;19.102;2023-08-20T09:03:08;97965.69;;;44.93;20.43
79028;BME280;68427;48.476;19.102;2023-08-20T09:05:45;97954.53;;;44.21;20.14
79028;BME280;68427;48.476;19.102;2023-08-20T09:08:19;97965.44;;;43.90;20.12
79028;BME280;68427;48.476;19.102;2023-08-20T09:10:46;97961.56;;;44.71;18.78
79028;BME280;68427;48.476;19.102;2023-08-20T09:13:11;97960.44;;;44.64;18.79
79028;BME280;68427;48.476;19.102;2023-08-20T09:15:37;97973.94;;;44.97;19.01
79028;BME280;68427;48.476;19.102;2023-08-20T09:18:03;97971.09;;;45.35;18.72
79028;BME280;68427;48.476;19.102;2023-08-20T09:20:35;97973.00;;;44.31;17.58
79028;BME280;68427;48.476;19.102;2023-08-20T09:23:01;97969.28;;;45.52;18.51
79028;BME280;68427;48.476;19.102;2023-08-20T09:25:27;97972.41;;;44.92;18.45
79028;BME280;68427;48.476;19.102;2023-08-20T09:27:54;97975.50;;;43.59;20.14
79028;BME280;68427;48.476;19.102;2023-08-20T09:30:20;97974.47;;;44.84;20.03
79028;BME280;68427;48.476;19.102;2023-08-20T09:33:02;97976.69;;;44.97;19.46
79028;BME280;68427;48.476;19.102;2023-08-20T09:35:28;97974.84;;;44.87;19.23
79028;BME280;68427;48.476;19.102;2023-08-20T09:37:58;97973.72;;;45.18;18.82
79028;BME280;68427;48.476;19.102;2023-08-20T09:40:24;97962.81;;;44.66;18.37
79028;BME280;68427;48.476;19.102;2023-08-20T09:42:51;97967.34;;;45.21;19.62
79028;BME280;68427;48.476;19.102;2023-08-20T09:45:19;97969.66;;;45.26;19.38
79028;BME280;68427;48.476;19.102;2023-08-20T09:47:48;97969.75;;;45.16;18.52
79028;BME280;68427;48.476;19.102;2023-08-20T09:50:17;97973.03;;;45.07;18.54
79028;BME280;68427;48.476;19.102;2023-08-20T09:52:53;97962.56;;;44.53;19.00
79028;BME280;68427;48.476;19.102;2023-08-20T09:55:21;97974.88;;;43.89;21.22
79028;BME280;68427;48.476;19.102;2023-08-20T09:57:49;97964.06;;;43.61;20.13
79028;BME280;68427;48.476;19.102;2023-08-20T10:00:18;97965.19;;;43.67;21.15
79028;BME280;68427;48.476;19.102;2023-08-20T10:02:43;97961.50;;;43.88;19.62
79028;BME280;68427;48.476;19.102;2023-08-20T10:05:11;97953.34;;;43.70;18.86
79028;BME280;68427;48.476;19.102;2023-08-20T10:07:37;97957.56;;;43.85;20.06
79028;BME280;68427;48.476;19.102;2023-08-20T10:10:05;97952.13;;;42.86;20.43
79028;BME280;68427;48.476;19.102;2023-08-20T10:12:32;97952.94;;;42.87;21.37
79028;BME280;68427;48.476;19.102;2023-08-20T10:14:58;97950.06;;;43.15;21.46
79028;BME280;68427;48.476;19.102;2023-08-20T10:17:25;97939.47;;;43.81;20.12
79028;BME280;68427;48.476;19.102;2023-08-20T10:19:53;97945.03;;;44.26;18.14
79028;BME280;68427;48.476;19.102;2023-08-20T10:22:20;97940.63;;;44.73;19.00
79028;BME280;68427;48.476;19.102;2023-08-20T10:24:51;97936.53;;;45.19;18.87
79028;BME280;68427;48.476;19.102;2023-08-20T10:27:24;97937.97;;;45.85;17.58
79028;BME280;68427;48.476;19.102;2023-08-20T10:29:52;97932.50;;;45.27;18.79
79028;BME280;68427;48.476;19.102;2023-08-20T10:32:18;97935.72;;;45.22;19.08
79028;BME280;68427;48.476;19.102;2023-08-20T10:34:50;97937.41;;;45.70;17.85
79028;BME280;68427;48.476;19.102;2023-08-20T10:37:16;97933.75;;;45.50;17.83
79028;BME280;68427;48.476;19.102;2023-08-20T10:39:53;97930.34;;;43.21;19.75
79028;BME280;68427;48.476;19.102;2023-08-20T10:42:26;97927.75;;;42.85;19.98
79028;BME280;68427;48.476;19.102;2023-08-20T10:45:02;97917.63;;;42.06;22.27
79028;BME280;68427;48.476;19.102;2023-08-20T10:47:36;97917.16;;;42.58;20.84
79028;BME280;68427;48.476;19.102;2023-08-20T10:50:04;97923.28;;;43.09;21.32
79028;BME280;68427;48.476;19.102;2023-08-20T10:52:30;97913.06;;;43.76;20.15
79028;BME280;68427;48.476;19.102;2023-08-20T10:54:56;97918.75;;;42.59;20.50
79028;BME280;68427;48.476;19.102;2023-08-20T10:57:22;97913.25;;;42.59;19.91
79028;BME280;68427;48.476;19.102;2023-08-20T10:59:57;97910.78;;;44.19;19.29
79028;BME280;68427;48.476;19.102;2023-08-20T11:02:23;97912.28;;;44.66;17.19
79028;BME280;68427;48.476;19.102;2023-08-20T11:04:51;97903.13;;;44.72;18.86
79028;BME280;68427;48.476;19.102;2023-08-20T11:07:18;97905.34;;;44.84;18.55
79028;BME280;68427;48.476;19.102;2023-08-20T11:09:45;97908.84;;;45.50;18.60
79028;BME280;68427;48.476;19.102;2023-08-20T11:12:14;97906.88;;;45.47;18.72
79028;BME280;68427;48.476;19.102;2023-08-20T11:14:40;97899.31;;;43.02;18.76
79028;BME280;68427;48.476;19.102;2023-08-20T11:17:06;97895.78;;;43.68;19.99
79028;BME280;68427;48.476;19.102;2023-08-20T11:19:33;97893.59;;;43.97;19.78
79028;BME280;68427;48.476;19.102;2023-08-20T11:21:59;97888.91;;;44.70;18.00
79028;BME280;68427;48.476;19.102;2023-08-20T11:24:29;97891.16;;;45.13;16.69
79028;BME280;68427;48.476;19.102;2023-08-20T11:26:55;97886.50;;;44.38;17.10
79028;BME280;68427;48.476;19.102;2023-08-20T11:29:21;97888.03;;;44.77;17.76
79028;BME280;68427;48.476;19.102;2023-08-20T11:31:47;97892.00;;;43.96;18.06
79028;BME280;68427;48.476;19.102;2023-08-20T11:34:13;97886.66;;;43.19;18.10
79028;BME280;68427;48.476;19.102;2023-08-20T11:36:39;97886.06;;;43.49;19.35
79028;BME280;68427;48.476;19.102;2023-08-20T11:39:06;97878.94;;;42.82;19.08
79028;BME280;68427;48.476;19.102;2023-08-20T11:41:36;97875.16;;;42.04;19.27
79028;BME280;68427;48.476;19.102;2023-08-20T11:44:02;97874.66;;;42.59;19.72
79028;BME280;68427;48.476;19.102;2023-08-20T11:46:28;97873.16;;;43.32;18.02
79028;BME280;68427;48.476;19.102;2023-08-20T11:49:01;97877.41;;;43.47;18.17
79028;BME280;68427;48.476;19.102;2023-08-20T11:51:29;97875.84;;;43.39;18.81
79028;BME280;68427;48.476;19.102;2023-08-20T11:53:55;97876.91;;;42.97;19.92
79028;BME280;68427;48.476;19.102;2023-08-20T11:56:21;97866.09;;;41.93;19.88
79028;BME280;68427;48.476;19.102;2023-08-20T11:58:51;97868.38;;;42.55;20.61
79028;BME280;68427;48.476;19.102;2023-08-20T12:01:17;97867.94;;;42.64;20.58
79028;BME280;68427;48.476;19.102;2023-08-20T12:03:43;97863.16;;;42.82;18.87
79028;BME280;68427;48.476;19.102;2023-08-20T12:06:19;97861.75;;;42.06;20.32
79028;BME280;68427;48.476;19.102;2023-08-20T12:08:45;97868.44;;;41.80;19.95
79028;BME280;68427;48.476;19.102;2023-08-20T12:11:12;97866.50;;;42.02;19.30
79028;BME280;68427;48.476;19.102;2023-08-20T12:13:37;97866.47;;;41.73;19.79
79028;BME280;68427;48.476;19.102;2023-08-20T12:16:05;97865.25;;;41.24;21.24
79028;BME280;68427;48.476;19.102;2023-08-20T12:18:30;97863.41;;;40.62;23.29
79028;BME280;68427;48.476;19.102;2023-08-20T12:20:56;97856.72;;;40.63;21.74
79028;BME280;68427;48.476;19.102;2023-08-20T12:23:22;97853.84;;;40.31;23.12
79028;BME280;68427;48.476;19.102;2023-08-20T12:25:50;97853.16;;;40.48;22.39
79028;BME280;68427;48.476;19.102;2023-08-20T12:28:16;97854.66;;;40.38;22.50
79028;BME280;68427;48.476;19.102;2023-08-20T12:30:43;97856.56;;;39.75;23.12
79028;BME280;68427;48.476;19.102;2023-08-20T12:33:10;97845.75;;;39.11;22.56
79028;BME280;68427;48.476;19.102;2023-08-20T12:35:36;97843.84;;;39.57;23.42
79028;BME280;68427;48.476;19.102;2023-08-20T12:38:02;97846.94;;;39.55;23.27
79028;BME280;68427;48.476;19.102;2023-08-20T12:40:28;97843.50;;;39.65;23.31
79028;BME280;68427;48.476;19.102;2023-08-20T12:42:54;97846.78;;;39.37;23.19
79028;BME280;68427;48.476;19.102;2023-08-20T12:45:20;97840.22;;;39.08;24.00
79028;BME280;68427;48.476;19.102;2023-08-20T12:47:46;97837.84;;;39.06;24.99